createdAt,value
2018-04-16T00:00:38.512Z,92.50
2018-04-16T00:01:46.618Z,92.22
2018-04-16T00:02:54.627Z,92.60
2018-04-16T00:04:02.710Z,92.60
2018-04-16T00:05:10.759Z,92.22
2018-04-16T00:06:18.851Z,92.46
2018-04-16T00:07:26.884Z,93.41
2018-04-16T00:08:34.927Z,92.65
2018-04-16T00:09:43.020Z,93.03
2018-04-16T00:10:51.077Z,93.41
2018-04-16T00:11:59.140Z,93.41
2018-04-16T00:13:07.195Z,93.41
2018-04-16T00:14:15.238Z,93.51
2018-04-16T00:15:23.322Z,94.37
2018-04-16T00:16:31.397Z,93.79
2018-04-16T00:17:39.576Z,94.08
2018-04-16T00:18:47.490Z,93.98
2018-04-16T00:19:55.560Z,94.74
2018-04-16T00:21:03.626Z,94.65
2018-04-16T00:22:11.688Z,94.74
2018-04-16T00:23:19.749Z,94.93
2018-04-16T00:24:27.817Z,95.41
2018-04-16T00:25:35.866Z,94.84
2018-04-16T00:26:43.939Z,95.41
2018-04-16T00:27:52.003Z,95.79
2018-04-16T00:29:00.063Z,95.70
2018-04-16T00:30:08.125Z,94.84
2018-04-16T00:31:16.182Z,95.51
2018-04-16T00:32:24.248Z,95.32
2018-04-16T00:33:32.315Z,95.89
2018-04-16T00:34:40.368Z,95.61
2018-04-16T00:35:48.447Z,95.89
2018-04-16T00:36:56.478Z,95.41
2018-04-16T00:38:04.542Z,96.08
2018-04-16T00:39:12.618Z,95.89
2018-04-16T00:40:20.674Z,96.84
2018-04-16T00:41:28.731Z,96.36
2018-04-16T00:42:36.776Z,95.98
2018-04-16T00:43:44.837Z,96.46
2018-04-16T00:44:52.918Z,96.60
2018-04-16T00:46:00.963Z,96.51
2018-04-16T00:47:09.086Z,96.60
2018-04-16T00:48:17.102Z,97.08
2018-04-16T00:49:25.225Z,96.89
2018-04-16T00:50:33.210Z,96.89
2018-04-16T00:51:41.279Z,97.27
2018-04-16T00:52:49.341Z,97.46
2018-04-16T00:53:57.414Z,97.17
2018-04-16T00:55:05.447Z,97.17
2018-04-16T00:56:13.536Z,96.51
2018-04-16T00:57:21.596Z,96.98
2018-04-16T00:58:29.644Z,96.89
2018-04-16T00:59:37.715Z,96.51
2018-04-16T01:00:45.769Z,96.98
2018-04-16T01:01:53.826Z,96.51
2018-04-16T01:03:01.903Z,96.41
2018-04-16T01:04:09.957Z,96.60
2018-04-16T01:05:18.018Z,96.03
2018-04-16T01:06:26.076Z,96.60
2018-04-16T01:07:34.133Z,96.60
2018-04-16T01:08:42.207Z,96.70
2018-04-16T01:09:50.265Z,96.51
2018-04-16T01:10:58.327Z,97.27
2018-04-16T01:12:06.381Z,96.70
2018-04-16T01:13:14.433Z,96.41
2018-04-16T01:14:22.510Z,96.70
2018-04-16T01:15:30.565Z,96.12
2018-04-16T01:16:38.635Z,96.22
2018-04-16T01:17:46.692Z,95.84
2018-04-16T01:18:54.737Z,96.70
2018-04-16T01:20:02.815Z,95.36
2018-04-16T01:21:10.892Z,96.41
2018-04-16T01:22:18.924Z,96.89
2018-04-16T01:23:26.997Z,96.60
2018-04-16T01:24:35.032Z,95.94
2018-04-16T01:25:43.128Z,95.27
2018-04-16T01:26:51.180Z,96.03
2018-04-16T01:27:59.248Z,95.94
2018-04-16T01:29:07.330Z,96.41
2018-04-16T01:30:15.335Z,96.70
2018-04-16T01:31:23.426Z,95.84
2018-04-16T01:32:31.502Z,95.94
2018-04-16T01:33:39.543Z,95.65
2018-04-16T01:34:47.605Z,95.84
2018-04-16T01:35:55.661Z,95.46
2018-04-16T01:37:03.731Z,96.03
2018-04-16T01:38:11.802Z,95.56
2018-04-16T01:39:19.839Z,95.65
2018-04-16T01:40:27.914Z,95.56
2018-04-16T01:41:35.989Z,95.65
2018-04-16T01:42:44.040Z,95.36
2018-04-16T01:43:52.087Z,95.36
2018-04-16T01:45:00.156Z,95.75
2018-04-16T01:46:08.224Z,95.17
2018-04-16T01:47:16.292Z,95.46
2018-04-16T01:48:24.352Z,95.75
2018-04-16T01:49:32.403Z,95.56
2018-04-16T01:50:40.481Z,95.08
2018-04-16T01:51:48.528Z,95.65
2018-04-16T01:52:56.578Z,95.27
2018-04-16T01:54:04.630Z,95.56
2018-04-16T01:55:12.699Z,95.56
2018-04-16T01:56:20.773Z,94.70
2018-04-16T01:57:28.845Z,95.17
2018-04-16T01:58:36.901Z,95.27
2018-04-16T01:59:44.928Z,95.46
2018-04-16T02:00:53.013Z,94.98
2018-04-16T02:02:01.075Z,94.89
2018-04-16T02:03:09.144Z,94.70
2018-04-16T02:04:17.195Z,95.56
2018-04-16T02:05:25.240Z,94.89
2018-04-16T02:06:33.324Z,94.70
2018-04-16T02:07:41.361Z,94.70
2018-04-16T02:08:49.441Z,94.22
2018-04-16T02:09:57.506Z,94.03
2018-04-16T02:11:05.556Z,93.46
2018-04-16T02:12:13.627Z,92.22
2018-04-16T02:13:21.690Z,91.94
2018-04-16T02:14:29.743Z,91.55
2018-04-16T02:15:37.806Z,91.74
2018-04-16T02:16:45.881Z,92.13
2018-04-16T02:17:53.926Z,91.46
2018-04-16T02:19:02.023Z,91.65
2018-04-16T02:20:10.043Z,91.65
2018-04-16T02:21:18.117Z,91.36
2018-04-16T02:22:26.164Z,92.03
2018-04-16T02:23:34.255Z,91.65
2018-04-16T02:24:42.287Z,90.79
2018-04-16T02:25:50.363Z,90.98
2018-04-16T02:26:58.413Z,90.98
2018-04-16T02:28:06.485Z,90.89
2018-04-16T02:29:14.535Z,90.98
2018-04-16T02:30:22.610Z,91.08
2018-04-16T02:31:30.669Z,90.89
2018-04-16T02:32:38.725Z,90.89
2018-04-16T02:33:46.793Z,91.46
2018-04-16T02:34:54.870Z,91.27
2018-04-16T02:36:02.910Z,91.17
2018-04-16T02:37:10.965Z,91.74
2018-04-16T02:38:19.039Z,91.55
2018-04-16T02:39:27.101Z,91.55
2018-04-16T02:40:35.127Z,91.94
2018-04-16T02:41:43.224Z,91.36
2018-04-16T02:42:51.291Z,91.84
2018-04-16T02:43:59.352Z,91.46
2018-04-16T02:45:07.393Z,91.17
2018-04-16T02:46:15.446Z,91.17
2018-04-16T02:47:23.526Z,91.55
2018-04-16T02:48:31.582Z,90.79
2018-04-16T02:49:39.642Z,89.65
2018-04-16T02:50:47.710Z,89.65
2018-04-16T02:51:55.765Z,89.26
2018-04-16T02:53:03.836Z,87.84
2018-04-16T02:54:11.898Z,88.60
2018-04-16T02:55:19.935Z,88.60
2018-04-16T02:56:28.017Z,88.89
2018-04-16T02:57:36.068Z,88.79
2018-04-16T02:58:44.140Z,89.65
2018-04-16T02:59:52.207Z,89.07
2018-04-16T03:01:00.243Z,90.50
2018-04-16T03:02:08.310Z,90.89
2018-04-16T03:03:16.380Z,90.41
2018-04-16T03:04:24.454Z,91.08
2018-04-16T03:05:32.504Z,90.70
2018-04-16T03:06:40.567Z,89.75
2018-04-16T03:07:48.618Z,90.31
2018-04-16T03:08:56.690Z,90.22
2018-04-16T03:10:04.733Z,91.55
2018-04-16T03:11:12.797Z,91.17
2018-04-16T03:12:20.855Z,91.55
2018-04-16T03:13:28.928Z,92.22
2018-04-16T03:14:37.001Z,91.17
2018-04-16T03:15:45.038Z,91.46
2018-04-16T03:16:53.105Z,91.74
2018-04-16T03:18:01.180Z,91.27
2018-04-16T03:19:09.242Z,91.94
2018-04-16T03:20:17.288Z,91.94
2018-04-16T03:21:25.353Z,91.94
2018-04-16T03:22:33.403Z,91.94
2018-04-16T03:23:41.491Z,92.13
2018-04-16T03:24:49.535Z,91.74
2018-04-16T03:25:57.596Z,92.41
2018-04-16T03:27:05.653Z,91.94
2018-04-16T03:28:13.723Z,92.60
2018-04-16T03:29:21.788Z,92.55
2018-04-16T03:30:29.843Z,92.27
2018-04-16T03:31:37.917Z,92.32
2018-04-16T03:32:45.960Z,92.60
2018-04-16T03:33:54.029Z,93.17
2018-04-16T03:35:02.093Z,93.79
2018-04-16T03:36:10.199Z,92.60
2018-04-16T03:37:18.216Z,93.79
2018-04-16T03:38:26.275Z,93.79
2018-04-16T03:39:34.335Z,94.27
2018-04-16T03:40:42.403Z,94.84
2018-04-16T03:41:50.446Z,94.37
2018-04-16T03:42:58.521Z,95.12
2018-04-16T03:44:06.564Z,94.32
2018-04-16T03:45:14.619Z,94.65
2018-04-16T03:46:22.706Z,94.93
2018-04-16T03:47:30.746Z,94.74
2018-04-16T03:48:38.832Z,94.93
2018-04-16T03:49:46.883Z,95.03
2018-04-16T03:50:54.924Z,94.93
2018-04-16T03:52:03.002Z,95.41
2018-04-16T03:53:11.079Z,95.51
2018-04-16T03:54:19.137Z,95.22
2018-04-16T03:55:27.186Z,95.51
2018-04-16T03:56:35.221Z,95.32
2018-04-16T03:57:43.305Z,95.60
2018-04-16T03:58:51.368Z,95.41
2018-04-16T03:59:59.497Z,96.55
2018-04-16T04:01:07.486Z,95.60
2018-04-16T04:02:15.576Z,95.41
2018-04-16T04:03:23.623Z,95.22
2018-04-16T04:04:31.674Z,95.41
2018-04-16T04:05:39.732Z,95.03
2018-04-16T04:06:47.788Z,95.51
2018-04-16T04:07:55.859Z,95.60
2018-04-16T04:09:03.910Z,96.55
2018-04-16T04:10:11.973Z,96.55
2018-04-16T04:11:20.031Z,96.46
2018-04-16T04:12:28.120Z,96.36
2018-04-16T04:13:36.161Z,96.08
2018-04-16T04:14:44.225Z,96.17
2018-04-16T04:15:52.328Z,96.94
2018-04-16T04:17:00.364Z,96.55
2018-04-16T04:18:08.406Z,96.75
2018-04-16T04:19:16.469Z,96.36
2018-04-16T04:20:24.514Z,96.94
2018-04-16T04:21:32.589Z,97.03
2018-04-16T04:22:40.645Z,96.55
2018-04-16T04:23:48.749Z,95.79
2018-04-16T04:24:56.798Z,95.79
2018-04-16T04:26:04.809Z,96.65
2018-04-16T04:27:12.893Z,96.46
2018-04-16T04:28:20.961Z,96.08
2018-04-16T04:29:29.019Z,95.22
2018-04-16T04:30:37.264Z,96.55
2018-04-16T04:31:45.110Z,96.46
2018-04-16T04:32:53.184Z,96.36
2018-04-16T04:34:01.258Z,96.75
2018-04-16T04:35:09.327Z,96.94
2018-04-16T04:36:17.363Z,97.13
2018-04-16T04:37:25.468Z,97.22
2018-04-16T04:38:33.515Z,96.75
2018-04-16T04:39:41.564Z,96.55
2018-04-16T04:40:49.622Z,96.75
2018-04-16T04:41:57.685Z,97.13
2018-04-16T04:43:05.758Z,97.03
2018-04-16T04:44:13.805Z,97.03
2018-04-16T04:45:21.854Z,96.75
2018-04-16T04:46:29.945Z,96.65
2018-04-16T04:47:37.983Z,96.94
2018-04-16T04:48:46.054Z,96.27
2018-04-16T04:49:54.103Z,95.70
2018-04-16T04:51:02.216Z,96.65
2018-04-16T04:52:10.224Z,96.94
2018-04-16T04:53:18.298Z,96.46
2018-04-16T04:54:26.607Z,96.75
2018-04-16T04:55:34.638Z,96.46
2018-04-16T04:56:42.492Z,95.60
2018-04-16T04:57:50.549Z,96.27
2018-04-16T04:58:58.604Z,96.65
2018-04-16T05:00:06.751Z,97.41
2018-04-16T05:01:14.749Z,97.22
2018-04-16T05:02:22.783Z,96.75
2018-04-16T05:03:31.320Z,97.22
2018-04-16T05:04:38.896Z,98.18
2018-04-16T05:05:46.968Z,97.41
2018-04-16T05:06:55.012Z,97.41
2018-04-16T05:08:03.097Z,97.13
2018-04-16T05:09:11.146Z,97.89
2018-04-16T05:10:19.210Z,98.27
2018-04-16T05:11:27.270Z,97.79
2018-04-16T05:12:35.315Z,97.99
2018-04-16T05:13:43.409Z,98.36
2018-04-16T05:14:51.465Z,98.08
2018-04-16T05:15:59.535Z,98.55
2018-04-16T05:17:07.590Z,98.46
2018-04-16T05:18:15.639Z,98.27
2018-04-16T05:19:23.706Z,98.65
2018-04-16T05:20:31.759Z,98.27
2018-04-16T05:21:39.836Z,98.46
2018-04-16T05:22:47.882Z,99.41
2018-04-16T05:23:55.949Z,98.27
2018-04-16T05:25:04.009Z,98.65
2018-04-16T05:26:12.077Z,99.32
2018-04-16T05:27:20.119Z,99.32
2018-04-16T05:28:28.239Z,99.03
2018-04-16T05:29:36.250Z,98.65
2018-04-16T05:30:44.320Z,99.13
2018-04-16T05:31:52.388Z,99.32
2018-04-16T05:33:00.425Z,99.41
2018-04-16T05:34:08.504Z,98.84
2018-04-16T05:35:16.561Z,98.74
2018-04-16T05:36:24.607Z,99.32
2018-04-16T05:37:32.668Z,98.94
2018-04-16T05:38:40.718Z,99.22
2018-04-16T05:39:48.803Z,99.60
2018-04-16T05:40:56.873Z,99.41
2018-04-16T05:42:04.896Z,99.32
2018-04-16T05:43:12.978Z,99.99
2018-04-16T05:44:21.036Z,99.99
2018-04-16T05:45:29.112Z,99.60
2018-04-16T05:46:37.167Z,99.22
2018-04-16T05:47:45.214Z,99.51
2018-04-16T05:48:53.313Z,99.32
2018-04-16T05:50:01.360Z,99.51
2018-04-16T05:51:09.420Z,99.13
2018-04-16T05:52:17.473Z,99.32
2018-04-16T05:53:25.529Z,99.32
2018-04-16T05:54:33.609Z,99.51
2018-04-16T05:55:41.649Z,98.74
2018-04-16T05:56:49.753Z,98.65
2018-04-16T05:57:57.774Z,98.46
2018-04-16T05:59:05.856Z,98.27
2018-04-16T06:00:13.893Z,98.46
2018-04-16T06:01:21.954Z,98.65
2018-04-16T06:02:30.030Z,98.55
2018-04-16T06:03:38.088Z,99.13
2018-04-16T06:04:46.136Z,99.22
2018-04-16T06:05:54.225Z,98.46
2018-04-16T06:07:02.269Z,97.94
2018-04-16T06:08:10.329Z,98.46
2018-04-16T06:09:18.386Z,98.41
2018-04-16T06:10:26.446Z,98.60
2018-04-16T06:11:34.500Z,98.03
2018-04-16T06:12:42.574Z,97.84
2018-04-16T06:13:50.636Z,97.75
2018-04-16T06:14:58.695Z,98.13
2018-04-16T06:16:06.753Z,98.13
2018-04-16T06:17:14.804Z,98.13
2018-04-16T06:18:22.884Z,97.84
2018-04-16T06:19:30.947Z,97.84
2018-04-16T06:20:39.002Z,98.51
2018-04-16T06:21:47.068Z,98.22
2018-04-16T06:22:55.113Z,97.84
2018-04-16T06:24:03.185Z,98.22
2018-04-16T06:25:11.239Z,98.22
2018-04-16T06:26:19.315Z,98.32
2018-04-16T06:27:27.459Z,98.13
2018-04-16T06:28:35.413Z,97.84
2018-04-16T06:29:43.510Z,98.18
2018-04-16T06:30:51.568Z,97.32
2018-04-16T06:31:59.631Z,97.22
2018-04-16T06:33:07.687Z,95.89
2018-04-16T06:34:15.734Z,95.89
2018-04-16T06:35:23.795Z,95.89
2018-04-16T06:36:31.857Z,94.51
2018-04-16T06:37:39.917Z,93.27
2018-04-16T06:38:47.986Z,93.17
2018-04-16T06:39:56.063Z,91.55
2018-04-16T06:41:04.129Z,92.69
2018-04-16T06:42:12.192Z,89.40
2018-04-16T06:43:20.237Z,89.31
2018-04-16T06:44:28.325Z,89.88
2018-04-16T06:45:36.376Z,89.25
2018-04-16T06:46:44.423Z,87.25
2018-04-16T06:47:52.483Z,87.54
2018-04-16T06:49:00.536Z,85.44
2018-04-16T06:50:08.608Z,87.73
2018-04-16T06:51:16.678Z,85.10
2018-04-16T06:52:24.714Z,86.24
2018-04-16T06:53:32.802Z,84.33
2018-04-16T06:54:40.859Z,83.67
2018-04-16T06:55:48.945Z,83.51
2018-04-16T06:56:56.998Z,83.90
2018-04-16T06:58:05.032Z,85.62
2018-04-16T06:59:13.112Z,83.61
2018-04-16T07:00:21.189Z,82.94
2018-04-16T07:01:29.249Z,82.75
2018-04-16T07:02:37.307Z,83.51
2018-04-16T07:03:45.360Z,83.99
2018-04-16T07:04:53.451Z,84.28
2018-04-16T07:06:01.508Z,81.60
2018-04-16T07:07:09.582Z,81.70
2018-04-16T07:08:17.638Z,80.74
2018-04-16T07:09:25.701Z,80.17
2018-04-16T07:10:33.768Z,81.36
2018-04-16T07:11:41.829Z,80.59
2018-04-16T07:12:49.899Z,81.36
2018-04-16T07:13:57.959Z,82.79
2018-04-16T07:15:06.025Z,80.59
2018-04-16T07:16:14.102Z,81.65
2018-04-16T07:17:22.157Z,79.68
2018-04-16T07:18:30.227Z,78.14
2018-04-16T07:19:38.284Z,79.39
2018-04-16T07:20:46.338Z,76.52
2018-04-16T07:21:54.409Z,76.23
2018-04-16T07:23:02.486Z,74.26
2018-04-16T07:24:10.548Z,74.26
2018-04-16T07:25:18.616Z,76.08
2018-04-16T07:26:26.678Z,75.98
2018-04-16T07:27:34.715Z,74.74
2018-04-16T07:28:42.815Z,75.22
2018-04-16T07:29:50.887Z,75.60
2018-04-16T07:30:58.938Z,76.08
2018-04-16T07:32:06.995Z,76.84
2018-04-16T07:33:15.052Z,76.94
2018-04-16T07:34:23.150Z,77.80
2018-04-16T07:35:31.211Z,76.65
2018-04-16T07:36:39.274Z,75.41
2018-04-16T07:37:47.332Z,75.41
2018-04-16T07:38:55.390Z,76.81
2018-04-16T07:40:03.467Z,78.05
2018-04-16T07:41:11.542Z,77.48
2018-04-16T07:42:19.608Z,76.62
2018-04-16T07:43:27.666Z,76.90
2018-04-16T07:44:35.745Z,78.91
2018-04-16T07:45:43.794Z,78.63
2018-04-16T07:46:51.861Z,78.14
2018-04-16T07:47:59.931Z,77.67
2018-04-16T07:49:07.994Z,78.24
2018-04-16T07:50:16.075Z,77.86
2018-04-16T07:51:24.133Z,77.76
2018-04-16T07:52:32.197Z,78.14
2018-04-16T07:53:40.268Z,78.43
2018-04-16T07:54:48.338Z,79.20
2018-04-16T07:55:56.398Z,79.68
2018-04-16T07:57:04.447Z,79.96
2018-04-16T07:58:12.526Z,78.53
2018-04-16T07:59:20.595Z,79.58
2018-04-16T08:00:28.695Z,78.14
2018-04-16T08:01:36.716Z,78.81
2018-04-16T08:02:44.775Z,78.91
2018-04-16T08:03:52.853Z,79.39
2018-04-16T08:05:00.923Z,78.72
2018-04-16T08:06:08.986Z,79.49
2018-04-16T08:07:17.043Z,79.10
2018-04-16T08:08:25.100Z,79.10
2018-04-16T08:09:33.185Z,79.49
2018-04-16T08:10:41.247Z,79.96
2018-04-16T08:11:49.317Z,80.59
2018-04-16T08:12:57.390Z,80.02
2018-04-16T08:14:05.435Z,80.59
2018-04-16T08:15:13.513Z,79.64
2018-04-16T08:16:21.575Z,79.54
2018-04-16T08:17:29.649Z,80.69
2018-04-16T08:18:37.702Z,80.69
2018-04-16T08:19:45.783Z,80.79
2018-04-16T08:20:53.835Z,79.93
2018-04-16T08:22:01.954Z,79.54
2018-04-16T08:23:09.979Z,79.00
2018-04-16T08:24:18.052Z,79.20
2018-04-16T08:25:26.104Z,79.00
2018-04-16T08:26:34.153Z,79.58
2018-04-16T08:27:42.246Z,78.34
2018-04-16T08:28:50.303Z,78.91
2018-04-16T08:29:58.375Z,80.25
2018-04-16T08:31:06.429Z,79.25
2018-04-16T08:32:14.482Z,80.02
2018-04-16T08:33:22.547Z,80.69
2018-04-16T08:34:30.614Z,80.98
2018-04-16T08:35:38.689Z,81.36
2018-04-16T08:36:46.743Z,81.36
2018-04-16T08:37:54.793Z,83.04
2018-04-16T08:39:02.885Z,82.84
2018-04-16T08:40:10.951Z,83.13
2018-04-16T08:41:19.053Z,82.94
2018-04-16T08:42:27.078Z,81.70
2018-04-16T08:43:35.119Z,82.65
2018-04-16T08:44:43.205Z,82.84
2018-04-16T08:45:51.273Z,83.61
2018-04-16T08:46:59.327Z,82.28
2018-04-16T08:48:07.407Z,82.65
2018-04-16T08:49:15.439Z,81.89
2018-04-16T08:50:23.518Z,81.70
2018-04-16T08:51:31.605Z,82.28
2018-04-16T08:52:39.705Z,81.84
2018-04-16T08:53:47.712Z,80.88
2018-04-16T08:54:55.783Z,81.74
2018-04-16T08:56:03.834Z,81.93
2018-04-16T08:57:11.930Z,80.59
2018-04-16T08:58:19.983Z,81.26
2018-04-16T08:59:28.056Z,81.45
2018-04-16T09:00:36.143Z,81.36
2018-04-16T09:01:44.164Z,81.74
2018-04-16T09:02:52.238Z,81.36
2018-04-16T09:04:00.304Z,80.79
2018-04-16T09:05:08.363Z,81.07
2018-04-16T09:06:16.414Z,80.59
2018-04-16T09:07:24.500Z,79.93
2018-04-16T09:08:32.562Z,79.64
2018-04-16T09:09:40.631Z,78.97
2018-04-16T09:10:48.701Z,79.16
2018-04-16T09:11:56.761Z,79.16
2018-04-16T09:13:04.823Z,79.25
2018-04-16T09:14:12.880Z,79.44
2018-04-16T09:15:20.947Z,80.40
2018-04-16T09:16:29.004Z,79.73
2018-04-16T09:17:37.071Z,80.30
2018-04-16T09:18:45.112Z,79.35
2018-04-16T09:19:53.216Z,79.44
2018-04-16T09:21:01.273Z,78.78
2018-04-16T09:22:09.360Z,78.43
2018-04-16T09:23:17.386Z,77.48
2018-04-16T09:24:25.464Z,76.71
2018-04-16T09:25:33.529Z,77.09
2018-04-16T09:26:41.601Z,76.71
2018-04-16T09:27:49.680Z,76.71
2018-04-16T09:28:57.729Z,78.05
2018-04-16T09:30:05.786Z,77.67
2018-04-16T09:31:13.859Z,77.04
2018-04-16T09:32:21.919Z,75.22
2018-04-16T09:33:29.968Z,75.31
2018-04-16T09:34:38.069Z,74.74
2018-04-16T09:35:46.134Z,75.22
2018-04-16T09:36:54.190Z,76.84
2018-04-16T09:38:02.255Z,76.56
2018-04-16T09:39:10.324Z,74.40
2018-04-16T09:40:18.385Z,74.01
2018-04-16T09:41:26.447Z,73.15
2018-04-16T09:42:34.503Z,73.66
2018-04-16T09:43:42.566Z,73.86
2018-04-16T09:44:50.647Z,72.71
2018-04-16T09:45:58.736Z,73.57
2018-04-16T09:47:06.772Z,72.13
2018-04-16T09:48:14.821Z,72.52
2018-04-16T09:49:22.899Z,72.32
2018-04-16T09:50:30.981Z,71.62
2018-04-16T09:51:39.040Z,70.89
2018-04-16T09:52:47.112Z,71.94
2018-04-16T09:53:55.155Z,71.94
2018-04-16T09:55:03.242Z,72.23
2018-04-16T09:56:11.299Z,71.37
2018-04-16T09:57:19.367Z,72.90
2018-04-16T09:58:27.475Z,73.09
2018-04-16T09:59:35.484Z,72.90
2018-04-16T10:00:43.554Z,72.45
2018-04-16T10:01:51.648Z,72.07
2018-04-16T10:02:59.702Z,72.27
2018-04-16T10:04:07.784Z,72.55
2018-04-16T10:05:15.847Z,72.27
2018-04-16T10:06:23.916Z,72.27
2018-04-16T10:07:31.973Z,72.07
2018-04-16T10:08:40.054Z,70.15
2018-04-16T10:09:48.118Z,71.31
2018-04-16T10:10:56.169Z,70.38
2018-04-16T10:12:04.239Z,69.71
2018-04-16T10:13:12.315Z,68.85
2018-04-16T10:14:20.387Z,68.27
2018-04-16T10:15:28.433Z,70.29
2018-04-16T10:16:36.504Z,70.38
2018-04-16T10:17:44.569Z,70.19
2018-04-16T10:18:52.652Z,70.57
2018-04-16T10:20:00.727Z,67.16
2018-04-16T10:21:08.781Z,67.16
2018-04-16T10:22:16.834Z,67.63
2018-04-16T10:23:24.911Z,66.96
2018-04-16T10:24:32.991Z,69.56
2018-04-16T10:25:41.058Z,68.21
2018-04-16T10:26:49.128Z,68.21
2018-04-16T10:27:57.188Z,69.56
2018-04-16T10:29:05.234Z,68.21
2018-04-16T10:30:13.325Z,67.63
2018-04-16T10:31:21.391Z,67.09
2018-04-16T10:32:29.512Z,64.79
2018-04-16T10:33:37.524Z,64.69
2018-04-16T10:34:45.587Z,65.20
2018-04-16T10:35:53.645Z,64.92
2018-04-16T10:37:01.734Z,66.52
2018-04-16T10:38:10.573Z,66.23
2018-04-16T10:39:17.868Z,65.65
2018-04-16T10:40:25.946Z,65.65
2018-04-16T10:41:34.022Z,65.46
2018-04-16T10:42:42.090Z,64.92
2018-04-16T10:43:50.148Z,65.84
2018-04-16T10:44:58.214Z,63.86
2018-04-16T10:46:06.288Z,65.27
2018-04-16T10:47:14.346Z,65.27
2018-04-16T10:48:22.424Z,66.13
2018-04-16T10:49:30.486Z,65.27
2018-04-16T10:50:38.563Z,67.00
2018-04-16T10:51:46.633Z,65.17
2018-04-16T10:52:54.688Z,64.89
2018-04-16T10:54:02.765Z,65.97
2018-04-16T10:55:10.834Z,65.40
2018-04-16T10:56:18.907Z,65.30
2018-04-16T10:57:26.985Z,64.63
2018-04-16T10:58:35.019Z,62.90
2018-04-16T10:59:43.107Z,64.22
2018-04-16T11:00:51.213Z,65.65
2018-04-16T11:01:59.262Z,65.84
2018-04-16T11:03:07.312Z,65.08
2018-04-16T11:04:15.364Z,64.50
2018-04-16T11:05:23.448Z,62.87
2018-04-16T11:06:31.516Z,66.13
2018-04-16T11:07:39.583Z,67.06
2018-04-16T11:08:47.651Z,66.39
2018-04-16T11:09:55.743Z,65.23
2018-04-16T11:11:03.800Z,66.19
2018-04-16T11:12:11.864Z,66.29
2018-04-16T11:13:19.934Z,67.73
2018-04-16T11:14:28.007Z,65.52
2018-04-16T11:15:36.078Z,66.00
2018-04-16T11:16:44.142Z,64.66
2018-04-16T11:17:52.216Z,65.17
2018-04-16T11:19:00.277Z,64.76
2018-04-16T11:20:08.355Z,63.70
2018-04-16T11:21:16.413Z,65.14
2018-04-16T11:22:24.466Z,65.52
2018-04-16T11:23:32.551Z,64.56
2018-04-16T11:24:40.617Z,67.06
2018-04-16T11:25:48.685Z,66.19
2018-04-16T11:26:56.767Z,66.10
2018-04-16T11:28:04.809Z,64.28
2018-04-16T11:29:12.889Z,66.39
2018-04-16T11:30:20.954Z,66.67
2018-04-16T11:31:29.014Z,66.19
2018-04-16T11:32:37.109Z,65.43
2018-04-16T11:33:45.145Z,66.00
2018-04-16T11:34:53.238Z,66.10
2018-04-16T11:36:01.300Z,66.00
2018-04-16T11:37:09.374Z,67.16
2018-04-16T11:38:17.438Z,65.62
2018-04-16T11:39:25.490Z,66.29
2018-04-16T11:40:33.579Z,66.86
2018-04-16T11:41:41.644Z,67.35
2018-04-16T11:42:49.711Z,67.35
2018-04-16T11:43:57.798Z,67.44
2018-04-16T11:45:05.868Z,66.93
2018-04-16T11:46:13.919Z,67.32
2018-04-16T11:47:21.977Z,68.33
2018-04-16T11:48:30.061Z,68.24
2018-04-16T11:49:38.123Z,68.33
2018-04-16T11:50:46.184Z,69.07
2018-04-16T11:51:54.255Z,68.52
2018-04-16T11:53:02.330Z,69.54
2018-04-16T11:54:10.378Z,69.35
2018-04-16T11:55:18.454Z,69.83
2018-04-16T11:56:26.519Z,70.50
2018-04-16T11:57:34.646Z,70.79
2018-04-16T11:58:42.666Z,70.03
2018-04-16T11:59:50.736Z,71.14
2018-04-16T12:00:58.800Z,71.62
2018-04-16T12:02:06.847Z,72.19
2018-04-16T12:03:14.907Z,72.77
2018-04-16T12:04:23.146Z,72.29
2018-04-16T12:05:31.065Z,71.23
2018-04-16T12:06:39.131Z,71.52
2018-04-16T12:07:47.179Z,71.42
2018-04-16T12:08:55.241Z,72.67
2018-04-16T12:10:03.320Z,73.72
2018-04-16T12:11:11.425Z,72.77
2018-04-16T12:12:19.450Z,72.48
2018-04-16T12:13:27.518Z,72.83
2018-04-16T12:14:35.582Z,73.24
2018-04-16T12:15:43.648Z,73.88
2018-04-16T12:16:51.736Z,72.67
2018-04-16T12:17:59.813Z,72.54
2018-04-16T12:19:07.881Z,72.44
2018-04-16T12:20:15.906Z,73.50
2018-04-16T12:21:23.991Z,73.69
2018-04-16T12:22:32.047Z,72.06
2018-04-16T12:23:40.116Z,72.63
2018-04-16T12:24:48.163Z,73.69
2018-04-16T12:25:56.233Z,73.40
2018-04-16T12:27:04.304Z,73.97
2018-04-16T12:28:12.382Z,73.02
2018-04-16T12:29:20.443Z,72.44
2018-04-16T12:30:28.501Z,73.69
2018-04-16T12:31:36.577Z,73.69
2018-04-16T12:32:44.617Z,72.54
2018-04-16T12:33:52.697Z,72.54
2018-04-16T12:35:00.781Z,73.11
2018-04-16T12:36:08.832Z,72.92
2018-04-16T12:37:16.902Z,73.59
2018-04-16T12:38:24.939Z,73.79
2018-04-16T12:39:33.037Z,73.40
2018-04-16T12:40:41.093Z,74.55
2018-04-16T12:41:49.160Z,74.84
2018-04-16T12:42:57.234Z,73.79
2018-04-16T12:44:05.268Z,71.97
2018-04-16T12:45:13.377Z,72.06
2018-04-16T12:46:21.422Z,71.39
2018-04-16T12:47:29.481Z,72.16
2018-04-16T12:48:37.549Z,73.59
2018-04-16T12:49:45.612Z,73.11
2018-04-16T12:50:53.707Z,73.72
2018-04-16T12:52:01.755Z,72.19
2018-04-16T12:53:09.810Z,72.58
2018-04-16T12:54:17.888Z,73.30
2018-04-16T12:55:25.950Z,71.87
2018-04-16T12:56:34.015Z,71.48
2018-04-16T12:57:42.071Z,72.92
2018-04-16T12:58:50.142Z,72.83
2018-04-16T12:59:58.214Z,72.92
2018-04-16T13:01:06.286Z,73.40
2018-04-16T13:02:14.337Z,73.30
2018-04-16T13:03:22.397Z,73.11
2018-04-16T13:04:30.472Z,71.39
2018-04-16T13:05:38.535Z,72.44
2018-04-16T13:06:46.598Z,72.16
2018-04-16T13:07:54.664Z,72.92
2018-04-16T13:09:02.743Z,72.73
2018-04-16T13:10:10.798Z,73.69
2018-04-16T13:11:18.860Z,73.88
2018-04-16T13:12:26.942Z,72.63
2018-04-16T13:13:34.970Z,71.68
2018-04-16T13:14:43.155Z,72.16
2018-04-16T13:15:51.122Z,71.77
2018-04-16T13:16:59.192Z,72.34
2018-04-16T13:18:07.266Z,73.02
2018-04-16T13:19:15.281Z,72.63
2018-04-16T13:20:23.386Z,72.16
2018-04-16T13:21:31.445Z,72.73
2018-04-16T13:22:40.486Z,73.30
2018-04-16T13:23:47.579Z,72.63
2018-04-16T13:24:55.620Z,71.68
2018-04-16T13:26:03.707Z,71.42
2018-04-16T13:27:11.817Z,71.91
2018-04-16T13:28:19.848Z,71.81
2018-04-16T13:29:27.906Z,70.85
2018-04-16T13:30:35.959Z,70.66
2018-04-16T13:31:44.039Z,69.51
2018-04-16T13:32:52.099Z,69.51
2018-04-16T13:34:00.161Z,69.42
2018-04-16T13:35:08.269Z,69.70
2018-04-16T13:36:16.293Z,69.60
2018-04-16T13:37:24.367Z,69.45
2018-04-16T13:38:32.416Z,70.12
2018-04-16T13:39:40.497Z,70.41
2018-04-16T13:40:48.559Z,69.83
2018-04-16T13:41:56.631Z,70.70
2018-04-16T13:43:04.715Z,70.89
2018-04-16T13:44:12.767Z,70.41
2018-04-16T13:45:20.832Z,70.21
2018-04-16T13:46:28.897Z,69.74
2018-04-16T13:47:36.959Z,70.98
2018-04-16T13:48:45.006Z,71.31
2018-04-16T13:49:53.090Z,70.44
2018-04-16T13:51:01.163Z,69.10
2018-04-16T13:52:09.218Z,69.17
2018-04-16T13:53:17.287Z,70.21
2018-04-16T13:54:25.348Z,70.79
2018-04-16T13:55:33.421Z,72.23
2018-04-16T13:56:41.489Z,72.03
2018-04-16T13:57:49.560Z,72.48
2018-04-16T13:58:57.625Z,71.27
2018-04-16T14:00:05.684Z,71.66
2018-04-16T14:01:13.751Z,72.77
2018-04-16T14:02:21.814Z,71.62
2018-04-16T14:03:29.880Z,72.67
2018-04-16T14:04:37.961Z,73.34
2018-04-16T14:05:46.025Z,72.96
2018-04-16T14:06:54.082Z,72.00
2018-04-16T14:08:02.145Z,71.68
2018-04-16T14:09:10.217Z,72.25
2018-04-16T14:10:18.288Z,72.44
2018-04-16T14:11:26.352Z,73.40
2018-04-16T14:12:34.420Z,73.59
2018-04-16T14:13:42.470Z,72.92
2018-04-16T14:14:50.531Z,73.55
2018-04-16T14:15:58.612Z,72.88
2018-04-16T14:17:06.679Z,73.36
2018-04-16T14:18:14.729Z,73.94
2018-04-16T14:19:22.804Z,74.51
2018-04-16T14:20:30.871Z,73.65
2018-04-16T14:21:38.938Z,74.61
2018-04-16T14:22:47.008Z,74.61
2018-04-16T14:23:55.042Z,74.51
2018-04-16T14:25:03.134Z,74.61
2018-04-16T14:26:11.214Z,74.51
2018-04-16T14:27:19.266Z,74.51
2018-04-16T14:28:27.314Z,74.99
2018-04-16T14:29:35.366Z,75.27
2018-04-16T14:30:43.453Z,74.61
2018-04-16T14:31:51.518Z,74.80
2018-04-16T14:32:59.576Z,73.84
2018-04-16T14:34:07.644Z,74.70
2018-04-16T14:35:15.714Z,75.14
2018-04-16T14:36:23.779Z,75.81